Time;durP1;ratioP1;P1;durP2;ratioP2;P2;SDS_P1;SDS_P2;PMS_P1;PMS_P2;Temp;Humidity;BMP_temperature;BMP_pressure;BME280_temperature;BME280_humidity;BME280_pressure;Samples;Min_cycle;Max_cycle;Signal;HPM_P1;HPM_P2
2023/04/13 00:00:41;;;;;;;8.15;4.72;;;;;;;10.03;100.00;98705.70;1724338;83;21225;-82
2023/04/13 00:03:47;;;;;;;8.20;4.95;;;;;;;9.94;100.00;98700.98;1723166;83;21866;-82
2023/04/13 00:06:52;;;;;;;7.08;4.92;;;;;;;9.94;100.00;98708.64;1723742;83;21819;-82
2023/04/13 00:10:01;;;;;;;6.35;5.17;;;;;;;10.00;100.00;98711.05;1722360;83;21336;-81
2023/04/13 00:13:06;;;;;;;9.65;6.62;;;;;;;9.98;100.00;98711.27;1723595;83;21200;-82
2023/04/13 00:16:16;;;;;;;14.58;10.00;;;;;;;9.95;100.00;98706.22;1723872;83;21921;-82
2023/04/13 00:19:24;;;;;;;8.50;6.42;;;;;;;9.91;100.00;98701.39;1700702;83;21238;-82
2023/04/13 00:22:34;;;;;;;18.45;11.93;;;;;;;9.87;100.00;98696.88;1660111;86;21207;-82
2023/04/13 00:25:39;;;;;;;8.78;7.55;;;;;;;9.89;100.00;98694.79;1659398;86;21222;-82
2023/04/13 00:28:46;;;;;;;7.55;6.00;;;;;;;9.91;100.00;98694.03;1660643;86;21211;-81
2023/04/13 00:31:52;;;;;;;8.80;5.65;;;;;;;9.99;100.00;98694.36;1660622;86;21203;-82
2023/04/13 00:34:58;;;;;;;6.75;4.85;;;;;;;9.94;100.00;98696.89;1659259;85;21845;-82
2023/04/13 00:38:05;;;;;;;6.37;4.15;;;;;;;9.82;100.00;98695.83;1660679;86;21206;-82
2023/04/13 00:41:11;;;;;;;6.97;5.10;;;;;;;9.81;100.00;98695.00;1659199;86;21218;-81
2023/04/13 00:44:20;;;;;;;6.35;4.67;;;;;;;9.80;100.00;98691.95;1659303;84;21247;-82
2023/04/13 00:47:40;;;;;;;7.37;5.87;;;;;;;9.83;100.00;98686.58;1660455;86;21215;-81
2023/04/13 00:50:47;;;;;;;9.03;5.08;;;;;;;9.80;100.00;98685.13;1659305;84;21293;-82
2023/04/13 00:53:52;;;;;;;8.98;7.80;;;;;;;9.82;100.00;98680.81;1644379;86;21215;-81
2023/04/13 00:56:59;;;;;;;7.08;5.60;;;;;;;9.76;100.00;98668.84;1659395;86;21820;-81
2023/04/13 01:00:13;;;;;;;5.95;4.42;;;;;;;9.78;100.00;98679.55;1660900;86;21500;-81
2023/04/13 01:03:21;;;;;;;4.20;3.80;;;;;;;9.83;100.00;98675.13;1659279;86;21231;-82
2023/04/13 01:06:40;;;;;;;4.03;3.62;;;;;;;9.76;100.00;98677.04;1660567;86;21187;-82
2023/04/13 01:10:22;;;;;;;4.17;3.77;;;;;;;9.80;100.00;98681.03;1659336;85;21185;-81
2023/04/13 01:13:39;;;;;;;6.87;4.47;;;;;;;9.83;100.00;98683.32;1659233;86;21271;-82
2023/04/13 01:16:54;;;;;;;21.20;12.00;;;;;;;9.84;100.00;98695.95;1660622;86;21242;-81
2023/04/13 01:20:19;;;;;;;6.55;5.15;;;;;;;9.81;100.00;98692.27;1640097;86;21247;-81
2023/04/13 01:23:36;;;;;;;5.28;4.60;;;;;;;9.74;100.00;98699.63;1660441;86;21607;-82
2023/04/13 01:27:11;;;;;;;7.87;5.47;;;;;;;9.71;100.00;98701.41;1660468;86;21493;-82
2023/04/13 01:30:23;;;;;;;9.80;6.00;;;;;;;9.69;100.00;98700.27;1649825;86;21235;-81
2023/04/13 01:33:29;;;;;;;7.10;5.90;;;;;;;9.68;100.00;98705.37;1660542;86;21203;-82
2023/04/13 01:36:33;;;;;;;8.88;4.78;;;;;;;9.68;100.00;98697.72;1660401;86;21210;-81
2023/04/13 01:39:38;;;;;;;5.80;4.28;;;;;;;9.72;100.00;98703.08;1660629;86;21195;-81
2023/04/13 01:42:51;;;;;;;3.98;3.30;;;;;;;9.70;100.00;98713.38;1659287;86;21203;-82
2023/04/13 01:46:18;;;;;;;7.28;4.00;;;;;;;9.70;100.00;98703.83;1659533;86;21255;-82
2023/04/13 01:49:29;;;;;;;7.15;5.05;;;;;;;9.72;100.00;98714.84;1659336;85;21242;-81
2023/04/13 01:52:40;;;;;;;5.90;4.90;;;;;;;9.72;100.00;98719.46;1651457;86;21203;-81
2023/04/13 01:55:48;;;;;;;9.65;6.53;;;;;;;9.68;100.00;98719.56;1659569;86;21203;-81
2023/04/13 01:58:57;;;;;;;6.40;5.65;;;;;;;9.70;100.00;98721.58;1659420;86;21207;-82
2023/04/13 02:02:03;;;;;;;8.40;5.53;;;;;;;9.65;100.00;98714.02;1660664;86;21246;-82
2023/04/13 02:05:10;;;;;;;6.65;5.00;;;;;;;9.67;100.00;98720.62;1660070;86;21242;-81
2023/04/13 02:08:17;;;;;;;6.53;4.97;;;;;;;9.73;100.00;98715.67;1660464;86;21215;-81
2023/04/13 02:11:21;;;;;;;7.75;4.55;;;;;;;9.67;100.00;98713.79;1660058;86;21246;-82
2023/04/13 02:14:29;;;;;;;5.67;3.98;;;;;;;9.64;100.00;98715.56;1659150;86;21275;-82
2023/04/13 02:17:37;;;;;;;5.17;4.22;;;;;;;9.72;100.00;98725.76;1659391;85;21262;-82
2023/04/13 02:21:10;;;;;;;5.80;4.20;;;;;;;9.77;100.00;98726.50;1660207;85;21246;-82
2023/04/13 02:24:16;;;;;;;6.50;4.95;;;;;;;9.73;100.00;98719.77;1745906;81;21858;-82
2023/04/13 02:27:22;;;;;;;6.50;5.10;;;;;;;9.75;100.00;98719.05;1742093;82;21462;-82
2023/04/13 02:30:28;;;;;;;8.68;4.45;;;;;;;9.71;100.00;98715.89;1742314;82;21133;-82
2023/04/13 02:33:35;;;;;;;6.70;4.90;;;;;;;9.69;100.00;98720.73;1710154;84;21238;-82
2023/04/13 02:36:41;;;;;;;6.83;4.37;;;;;;;9.64;100.00;98719.66;1746029;81;21228;-82
2023/04/13 02:39:48;;;;;;;6.97;4.28;;;;;;;9.66;100.00;98712.95;1740880;82;21133;-83
2023/04/13 02:42:56;;;;;;;4.53;3.92;;;;;;;9.76;100.00;98715.80;1710058;84;21195;-82
2023/04/13 02:46:01;;;;;;;6.08;4.55;;;;;;;9.58;100.00;98710.42;1729633;83;21906;-82
2023/04/13 02:49:07;;;;;;;8.33;4.00;;;;;;;9.65;100.00;98698.16;1731065;83;21185;-82
2023/04/13 02:52:30;;;;;;;6.50;4.45;;;;;;;9.70;100.00;98693.75;1657757;85;21292;-81
2023/04/13 02:55:31;;;;;;;5.85;4.40;;;;;;;9.69;100.00;98689.34;1742263;82;21787;-81
2023/04/13 02:58:36;;;;;;;7.97;5.25;;;;;;;9.65;100.00;98689.44;1716151;83;21236;-81
2023/04/13 03:01:44;;;;;;;10.03;5.05;;;;;;;9.56;100.00;98688.49;1742204;82;21200;-82
2023/04/13 03:04:53;;;;;;;7.72;5.35;;;;;;;9.58;100.00;98678.19;1711480;84;21302;-82
2023/04/13 03:08:01;;;;;;;8.00;5.12;;;;;;;9.50;100.00;98688.78;1730325;81;21213;-82
2023/04/13 03:11:20;;;;;;;5.92;5.12;;;;;;;9.57;100.00;98696.99;1705559;83;21209;-81
2023/04/13 03:14:36;;;;;;;7.83;6.00;;;;;;;9.58;100.00;98703.59;1722339;83;21198;-82
2023/04/13 03:17:43;;;;;;;14.15;7.03;;;;;;;9.63;100.00;98709.80;1746564;82;21189;-81
2023/04/13 03:20:49;;;;;;;12.03;7.17;;;;;;;9.59;100.00;98713.46;1710046;84;21192;-82
2023/04/13 03:23:56;;;;;;;10.72;6.60;;;;;;;9.60;100.00;98725.25;1736004;81;21152;-82
2023/04/13 03:26:59;;;;;;;9.93;7.27;;;;;;;9.69;100.00;98719.87;1731603;83;21288;-81
2023/04/13 03:30:06;;;;;;;19.20;11.95;;;;;;;9.78;100.00;98717.25;1730405;83;21181;-82
2023/04/13 03:33:20;;;;;;;18.45;10.40;;;;;;;9.81;100.00;98718.20;1728929;83;21863;-82
2023/04/13 03:36:26;;;;;;;13.35;9.68;;;;;;;9.75;100.00;98723.15;1735480;82;21236;-82
2023/04/13 03:39:32;;;;;;;11.48;8.98;;;;;;;9.73;100.00;98724.70;1730500;83;21197;-82
2023/04/13 03:42:41;;;;;;;14.00;9.78;;;;;;;9.66;100.00;98720.30;1735795;82;21168;-82
2023/04/13 03:45:49;;;;;;;12.33;8.10;;;;;;;9.73;100.00;98724.70;1734406;82;21527;-82
2023/04/13 03:48:55;;;;;;;9.90;7.15;;;;;;;9.67;100.00;98713.27;1735567;82;21184;-83
2023/04/13 03:52:00;;;;;;;9.75;7.72;;;;;;;9.68;100.00;98714.10;1734372;82;21262;-82
2023/04/13 03:55:02;;;;;;;10.45;6.65;;;;;;;9.80;100.00;98721.99;1736474;82;21199;-82
2023/04/13 03:58:08;;;;;;;13.05;7.75;;;;;;;9.98;100.00;98724.09;1710137;82;21786;-82
2023/04/13 04:01:15;;;;;;;9.75;7.28;;;;;;;10.01;100.00;98725.02;1735395;82;21184;-82
2023/04/13 04:04:22;;;;;;;10.15;7.50;;;;;;;10.03;100.00;98737.96;1736911;82;21799;-83
2023/04/13 04:07:31;;;;;;;8.70;7.28;;;;;;;10.12;100.00;98740.79;1735063;82;21256;-82
2023/04/13 04:10:38;;;;;;;11.57;7.85;;;;;;;10.17;100.00;98742.89;1736696;82;21228;-82
2023/04/13 04:13:44;;;;;;;11.10;7.22;;;;;;;10.11;100.00;98750.55;1736704;82;21180;-82
2023/04/13 04:16:50;;;;;;;14.85;7.72;;;;;;;10.15;100.00;98764.10;1736586;82;21188;-82
2023/04/13 04:19:57;;;;;;;11.05;7.75;;;;;;;10.09;100.00;98757.59;1736476;82;21192;-81
2023/04/13 04:23:04;;;;;;;12.03;6.83;;;;;;;10.15;100.00;98747.17;1737038;82;21172;-82
2023/04/13 04:26:24;;;;;;;9.85;7.62;;;;;;;10.25;100.00;98757.70;1736851;82;21866;-82
2023/04/13 04:29:34;;;;;;;9.63;6.97;;;;;;;10.38;100.00;98761.80;1736605;82;21194;-82
2023/04/13 04:32:51;;;;;;;12.85;7.15;;;;;;;10.33;100.00;98765.69;1736717;82;22528;-82
2023/04/13 04:35:52;;;;;;;7.80;6.67;;;;;;;10.31;100.00;98758.25;1736678;82;21180;-82
2023/04/13 04:39:00;;;;;;;12.80;7.67;;;;;;;10.30;100.00;98768.84;1735259;82;21814;-82
2023/04/13 04:42:11;;;;;;;11.22;8.08;;;;;;;10.21;100.00;98763.28;1736890;82;21184;-82
2023/04/13 04:45:19;;;;;;;11.70;9.00;;;;;;;10.34;100.00;98753.70;1736690;82;21228;-83
2023/04/13 04:48:30;;;;;;;13.72;8.80;;;;;;;10.34;100.00;98745.50;1735657;82;21814;-82
2023/04/13 04:51:34;;;;;;;12.82;8.85;;;;;;;10.42;100.00;98746.66;1736567;82;21236;-82
2023/04/13 04:54:39;;;;;;;16.73;9.90;;;;;;;10.24;100.00;98747.30;1735773;82;21204;-82
2023/04/13 04:57:45;;;;;;;12.90;9.85;;;;;;;10.15;100.00;98749.91;1735030;82;21188;-82
2023/04/13 05:00:46;;;;;;;17.23;10.45;;;;;;;10.31;100.00;98747.84;1736276;82;21196;-82
2023/04/13 05:03:53;;;;;;;17.98;11.83;;;;;;;10.18;100.00;98748.13;1736612;82;21745;-82
2023/04/13 05:07:01;;;;;;;15.80;9.93;;;;;;;10.19;100.00;98755.80;1736591;82;21172;-83
2023/04/13 05:10:08;;;;;;;13.50;9.15;;;;;;;10.19;100.00;98761.27;1735820;82;21220;-82
2023/04/13 05:13:16;;;;;;;13.80;8.65;;;;;;;10.15;100.00;98756.73;1734327;82;21314;-82
2023/04/13 05:16:33;;;;;;;15.20;9.05;;;;;;;10.24;100.00;98768.33;1733165;83;21792;-82
2023/04/13 05:19:40;;;;;;;10.55;8.23;;;;;;;10.36;100.00;98773.48;1734864;81;21711;-82
2023/04/13 05:22:48;;;;;;;10.75;8.05;;;;;;;10.43;100.00;98761.99;1705615;83;21170;-82
2023/04/13 05:25:54;;;;;;;12.43;8.33;;;;;;;10.33;100.00;98767.59;1733832;81;21183;-82
2023/04/13 05:29:01;;;;;;;12.73;7.78;;;;;;;10.32;100.00;98770.85;1739235;81;21220;-83
2023/04/13 05:32:10;;;;;;;10.40;6.83;;;;;;;10.31;100.00;98775.17;1737897;81;21197;-82
2023/04/13 05:35:17;;;;;;;9.75;7.30;;;;;;;10.29;100.00;98768.53;1776248;79;21992;-82
2023/04/13 05:38:23;;;;;;;9.95;6.30;;;;;;;10.32;100.00;98765.92;1758605;81;21616;-84
2023/04/13 05:41:30;;;;;;;10.15;6.33;;;;;;;10.26;100.00;98760.78;1774591;79;21189;-84
2023/04/13 05:44:37;;;;;;;7.00;5.35;;;;;;;10.28;100.00;98764.66;1762783;79;21399;-83
2023/04/13 05:47:44;;;;;;;9.68;6.33;;;;;;;10.24;100.00;98755.50;1779840;79;21237;-84
2023/04/13 05:50:53;;;;;;;8.53;5.62;;;;;;;10.36;100.00;98746.15;1777741;79;21181;-83
2023/04/13 05:54:00;;;;;;;5.40;4.75;;;;;;;10.35;100.00;98741.74;1754228;80;21750;-84
2023/04/13 05:57:13;;;;;;;9.00;5.08;;;;;;;10.34;100.00;98741.94;1738782;80;21208;-83
2023/04/13 06:00:20;;;;;;;6.25;4.83;;;;;;;10.36;100.00;98739.84;1738903;81;22178;-84
2023/04/13 06:03:28;;;;;;;7.85;5.87;;;;;;;10.42;100.00;98737.09;1774009;79;22458;-84
2023/04/13 06:06:34;;;;;;;6.03;4.90;;;;;;;10.43;100.00;98737.39;1782321;79;21073;-84
2023/04/13 06:09:40;;;;;;;8.43;5.30;;;;;;;10.51;100.00;98734.13;1775644;79;21229;-84
2023/04/13 06:12:52;;;;;;;8.43;5.15;;;;;;;10.54;100.00;98737.28;1775086;79;21161;-84
2023/04/13 06:15:58;;;;;;;7.28;4.67;;;;;;;10.64;100.00;98740.94;1744068;80;21259;-86
2023/04/13 06:19:06;;;;;;;6.50;4.60;;;;;;;10.73;100.00;98751.95;1743552;81;21211;-84
2023/04/13 06:22:13;;;;;;;5.25;3.95;;;;;;;10.68;100.00;98749.00;1696256;82;21125;-84
2023/04/13 06:25:21;;;;;;;6.97;4.55;;;;;;;10.64;100.00;98765.55;1719944;82;21461;-84
2023/04/13 06:28:30;;;;;;;5.90;4.65;;;;;;;10.60;100.00;98767.02;1681255;83;21852;-83
2023/04/13 06:31:37;;;;;;;6.67;5.08;;;;;;;10.57;100.00;98763.34;1713671;82;21180;-83
2023/04/13 06:34:44;;;;;;;9.23;5.78;;;;;;;10.68;100.00;98762.17;1729879;82;21211;-84
2023/04/13 06:37:52;;;;;;;7.40;5.42;;;;;;;10.80;100.00;98760.97;1716643;83;21753;-83
2023/04/13 06:41:00;;;;;;;5.92;4.45;;;;;;;10.69;100.00;98765.21;1716959;82;21181;-83
2023/04/13 06:44:07;;;;;;;4.85;3.75;;;;;;;10.78;100.00;98774.56;1685139;83;21198;-83
2023/04/13 06:47:16;;;;;;;5.42;3.87;;;;;;;10.89;100.00;98777.98;1685638;83;21279;-84
2023/04/13 06:50:22;;;;;;;5.17;3.70;;;;;;;10.75;100.00;98797.69;1683002;83;21240;-84
2023/04/13 06:53:29;;;;;;;5.65;3.45;;;;;;;10.84;100.00;98802.41;1708208;82;21261;-84
2023/04/13 06:56:38;;;;;;;4.15;3.75;;;;;;;10.99;100.00;98809.30;1710725;82;21875;-84
2023/04/13 06:59:45;;;;;;;5.80;4.03;;;;;;;11.03;100.00;98812.98;1712122;83;21178;-84
2023/04/13 07:02:51;;;;;;;5.45;4.10;;;;;;;11.17;100.00;98812.71;1712872;82;21781;-84
2023/04/13 07:06:09;;;;;;;5.47;4.17;;;;;;;11.21;100.00;98817.23;1677603;85;21199;-82
2023/04/13 07:09:16;;;;;;;5.70;4.28;;;;;;;11.25;100.00;98822.59;1682142;83;21445;-83
2023/04/13 07:12:23;;;;;;;4.50;4.05;;;;;;;11.41;100.00;98828.92;1694966;82;21216;-82
2023/04/13 07:15:32;;;;;;;5.17;4.17;;;;;;;11.37;100.00;98824.94;1715748;82;21213;-83
2023/04/13 07:18:41;;;;;;;8.63;4.97;;;;;;;11.40;100.00;98824.51;1718356;82;21216;-85
2023/04/13 07:21:48;;;;;;;5.90;4.00;;;;;;;11.46;100.00;98829.11;1696248;83;21216;-82
2023/04/13 07:24:56;;;;;;;5.90;5.03;;;;;;;11.50;100.00;98824.88;1718092;82;21186;-83
2023/04/13 07:28:05;;;;;;;5.47;4.25;;;;;;;11.48;100.00;98826.17;1710605;83;21276;-83
2023/04/13 07:31:15;;;;;;;4.90;4.10;;;;;;;11.56;100.00;98831.38;1749797;81;21946;-82
2023/04/13 07:34:21;;;;;;;4.17;3.70;;;;;;;11.59;100.00;98829.58;1744130;81;21180;-83
2023/04/13 07:37:28;;;;;;;5.33;4.05;;;;;;;11.66;100.00;98822.15;1741614;81;21812;-82
2023/04/13 07:40:37;;;;;;;3.95;3.55;;;;;;;11.68;100.00;98826.89;1722694;83;21245;-82
2023/04/13 07:43:42;;;;;;;5.05;3.85;;;;;;;11.69;100.00;98834.58;1746954;81;21191;-82
2023/04/13 07:46:50;;;;;;;4.85;3.95;;;;;;;11.78;100.00;98845.59;1726667;82;21545;-82
2023/04/13 07:49:56;;;;;;;5.25;3.33;;;;;;;11.83;100.00;98833.47;1750730;81;21532;-82
2023/04/13 07:53:03;;;;;;;4.20;3.55;;;;;;;11.84;100.00;98837.88;1752487;81;21141;-82
2023/04/13 07:56:10;;;;;;;4.42;3.70;;;;;;;11.89;100.00;98841.33;1711607;82;21192;-82
2023/04/13 07:59:16;;;;;;;5.03;4.05;;;;;;;11.87;100.00;98834.72;1743879;81;21164;-83
2023/04/13 08:02:23;;;;;;;6.03;4.83;;;;;;;11.93;100.00;98836.56;1750746;81;21158;-83
2023/04/13 08:05:30;;;;;;;4.90;4.17;;;;;;;12.19;100.00;98833.34;1712388;82;21179;-83
2023/04/13 08:08:59;;;;;;;7.23;4.63;;;;;;;12.21;100.00;98842.17;1722757;82;21919;-82
2023/04/13 08:12:10;;;;;;;4.53;4.00;;;;;;;12.29;100.00;98825.45;1751497;80;21174;-83
2023/04/13 08:15:16;;;;;;;5.00;4.37;;;;;;;12.45;100.00;98819.39;1746703;81;21186;-82
2023/04/13 08:18:25;;;;;;;4.87;4.15;;;;;;;12.58;100.00;98820.35;1747691;81;21158;-82
2023/04/13 08:21:32;;;;;;;4.42;4.00;;;;;;;12.62;100.00;98823.79;1747256;81;21207;-83
2023/04/13 08:24:40;;;;;;;7.28;3.90;;;;;;;12.81;100.00;98821.91;1747318;81;21809;-83
2023/04/13 08:27:50;;;;;;;5.53;3.62;;;;;;;12.89;100.00;98814.77;1727192;80;21147;-83
2023/04/13 08:30:56;;;;;;;5.72;4.10;;;;;;;12.95;100.00;98816.59;1706301;82;21195;-83
2023/04/13 08:34:04;;;;;;;5.03;4.03;;;;;;;13.10;100.00;98804.39;1686582;83;21724;-84
2023/04/13 08:37:14;;;;;;;4.08;3.20;;;;;;;13.13;100.00;98801.20;1688677;83;22380;-83
2023/04/13 08:40:20;;;;;;;5.50;4.25;;;;;;;13.16;100.00;98807.58;1724531;82;21315;-83
2023/04/13 08:43:20;;;;;;;6.28;4.60;;;;;;;13.09;100.00;98815.91;1688755;83;21218;-83
2023/04/13 08:46:29;;;;;;;6.72;5.08;;;;;;;13.10;100.00;98812.63;1717292;82;21305;-83
2023/04/13 08:49:34;;;;;;;6.25;5.08;;;;;;;12.95;100.00;98811.10;1704776;82;21176;-83
2023/04/13 08:52:42;;;;;;;6.58;4.70;;;;;;;12.87;100.00;98811.39;1703404;82;21234;-83
2023/04/13 08:55:52;;;;;;;6.62;5.00;;;;;;;12.92;100.00;98807.97;1706127;82;21214;-83
2023/04/13 08:58:59;;;;;;;8.08;5.37;;;;;;;12.96;100.00;98808.66;1712393;83;21200;-83
2023/04/13 09:02:06;;;;;;;7.55;5.75;;;;;;;13.11;100.00;98806.90;1700177;82;21240;-84
2023/04/13 09:05:19;;;;;;;6.17;5.10;;;;;;;13.09;100.00;98794.48;1709992;83;21224;-83
2023/04/13 09:08:26;;;;;;;7.22;5.80;;;;;;;13.18;100.00;98797.23;1720835;82;21173;-83
2023/04/13 09:11:33;;;;;;;17.82;7.00;;;;;;;13.20;100.00;98803.31;1720180;82;21225;-83
2023/04/13 09:14:38;;;;;;;10.98;7.30;;;;;;;13.14;100.00;98800.96;1731771;82;21208;-82
2023/04/13 09:17:46;;;;;;;13.55;7.90;;;;;;;13.22;100.00;98803.94;1719192;82;21181;-82
2023/04/13 09:21:06;;;;;;;11.73;7.25;;;;;;;13.43;100.00;98807.59;1696467;83;21195;-83
2023/04/13 09:24:13;;;;;;;14.50;7.78;;;;;;;13.59;100.00;98812.14;1686060;83;21270;-83
2023/04/13 09:27:28;;;;;;;11.57;7.17;;;;;;;13.77;100.00;98808.81;1697457;83;21217;-82
2023/04/13 09:30:35;;;;;;;14.63;6.90;;;;;;;13.80;100.00;98806.14;1724694;80;21188;-84
2023/04/13 09:33:54;;;;;;;9.35;7.17;;;;;;;13.79;100.00;98814.09;1692164;84;21782;-83
2023/04/13 09:37:00;;;;;;;8.45;6.17;;;;;;;13.79;100.00;98809.97;1713559;82;21264;-82
2023/04/13 09:40:22;;;;;;;10.53;6.55;;;;;;;13.90;99.16;98812.45;1711339;82;21240;-83
2023/04/13 09:43:27;;;;;;;15.32;8.68;;;;;;;14.08;98.32;98812.92;1708834;82;21192;-82
2023/04/13 09:46:32;;;;;;;13.43;9.53;;;;;;;13.96;97.25;98817.00;1719691;82;21200;-83
2023/04/13 09:49:50;;;;;;;14.53;9.53;;;;;;;13.78;97.33;98824.75;1706312;82;21170;-83
2023/04/13 09:53:15;;;;;;;13.78;9.75;;;;;;;13.47;97.75;98825.30;1687348;84;21220;-83
2023/04/13 09:56:17;;;;;;;12.25;8.78;;;;;;;13.29;99.20;98826.68;1707895;82;21334;-83
2023/04/13 09:59:24;;;;;;;9.45;8.30;;;;;;;13.27;99.50;98832.95;1709389;84;21218;-83
2023/04/13 10:02:30;;;;;;;9.45;7.70;;;;;;;13.20;99.51;98832.14;1704124;82;21264;-83
2023/04/13 10:05:36;;;;;;;9.70;8.10;;;;;;;13.10;99.75;98838.70;1712891;82;21565;-83
2023/04/13 10:11:50;;;;;;;10.80;8.58;;;;;;;13.12;100.00;98851.12;1706723;82;21211;-84
2023/04/13 10:14:57;;;;;;;9.60;7.03;;;;;;;13.20;99.44;98847.24;1714466;82;21230;-84
2023/04/13 10:18:36;;;;;;;;;;;;;;;;;;;;;
2023/04/13 10:21:42;;;;;;;15.78;8.30;;;;;;;13.13;99.05;98841.00;1657506;83;21263;-84
2023/04/13 10:24:49;;;;;;;13.28;8.40;;;;;;;13.14;99.30;98842.67;1741094;80;21180;-83
2023/04/13 10:28:03;;;;;;;11.95;7.92;;;;;;;12.89;100.00;98846.33;1700258;84;22572;-83
2023/04/13 10:31:09;;;;;;;10.75;7.55;;;;;;;12.84;100.00;98845.30;1712349;82;21224;-82
2023/04/13 10:34:17;;;;;;;14.13;8.75;;;;;;;12.87;100.00;98842.95;1696243;83;21196;-81
2023/04/13 10:37:33;;;;;;;10.98;8.30;;;;;;;12.92;100.00;98851.34;1711662;83;21474;-83
2023/04/13 10:40:52;;;;;;;15.68;9.28;;;;;;;12.86;100.00;98852.80;1710904;82;21161;-82
2023/04/13 10:44:10;;;;;;;20.08;8.93;;;;;;;12.81;100.00;98858.95;1711457;84;21248;-82
2023/04/13 10:47:17;;;;;;;13.72;8.50;;;;;;;12.73;100.00;98856.49;1705170;83;21161;-82
2023/04/13 10:50:26;;;;;;;13.00;9.15;;;;;;;12.71;100.00;98855.89;1729048;82;21197;-82
2023/04/13 10:53:33;;;;;;;16.05;10.28;;;;;;;12.74;100.00;98854.05;1714816;82;21260;-83
2023/04/13 10:56:39;;;;;;;14.75;10.25;;;;;;;12.76;100.00;98852.77;1711354;82;21191;-82
2023/04/13 10:59:57;;;;;;;14.55;10.13;;;;;;;12.82;100.00;98853.77;1715116;82;21304;-82
2023/04/13 11:03:05;;;;;;;15.13;11.03;;;;;;;12.71;100.00;98857.27;1707482;83;21233;-83
2023/04/13 11:06:11;;;;;;;13.00;10.13;;;;;;;12.89;100.00;98852.31;1703791;83;21171;-83
2023/04/13 11:09:17;;;;;;;10.95;9.68;;;;;;;12.78;100.00;98853.38;1715180;82;21256;-83
2023/04/13 11:12:26;;;;;;;17.20;12.28;;;;;;;12.81;100.00;98857.59;1737187;81;21236;-83
2023/04/13 11:15:35;;;;;;;16.15;12.20;;;;;;;12.85;100.00;98862.09;1730705;82;21719;-83
2023/04/13 11:18:41;;;;;;;18.60;13.43;;;;;;;12.88;100.00;98867.11;1707822;83;21201;-82
2023/04/13 11:21:47;;;;;;;20.45;14.33;;;;;;;12.75;100.00;98865.33;1672430;86;21800;-83
2023/04/13 11:24:53;;;;;;;23.18;13.68;;;;;;;12.72;100.00;98868.54;1681163;84;21287;-82
2023/04/13 11:28:08;;;;;;;19.12;13.68;;;;;;;12.83;100.00;98866.95;1682215;85;21209;-83
2023/04/13 11:31:15;;;;;;;21.07;15.50;;;;;;;12.87;100.00;98860.78;1683304;82;21189;-83
2023/04/13 11:34:27;;;;;;;20.02;15.68;;;;;;;12.65;100.00;98858.14;1728493;82;21208;-82
2023/04/13 11:37:33;;;;;;;21.12;16.82;;;;;;;12.66;100.00;98850.25;1694476;84;21203;-82
2023/04/13 11:40:42;;;;;;;27.87;19.55;;;;;;;12.63;100.00;98852.89;1724941;83;21175;-82
2023/04/13 11:43:47;;;;;;;29.52;21.60;;;;;;;12.65;100.00;98856.77;1719310;82;21219;-83
2023/04/13 11:46:52;;;;;;;29.23;22.80;;;;;;;12.52;100.00;98864.07;1716414;82;21157;-83
2023/04/13 11:49:58;;;;;;;31.85;24.20;;;;;;;12.54;100.00;98856.98;1703990;83;22232;-83
2023/04/13 11:53:03;;;;;;;28.00;22.80;;;;;;;12.91;100.00;98859.27;1721838;83;21216;-83
2023/04/13 11:56:09;;;;;;;28.57;22.30;;;;;;;12.79;100.00;98856.41;1734036;81;21643;-82
2023/04/13 11:59:17;;;;;;;28.67;22.17;;;;;;;12.71;100.00;98846.30;1734164;82;21212;-82
2023/04/13 12:02:22;;;;;;;29.57;24.23;;;;;;;12.56;100.00;98856.21;1735534;82;21164;-82
2023/04/13 12:05:34;;;;;;;35.85;23.70;;;;;;;12.72;100.00;98855.66;1734363;82;21221;-82
2023/04/13 12:08:40;;;;;;;28.90;22.50;;;;;;;12.70;100.00;98859.17;1713996;81;21192;-82
2023/04/13 12:11:52;;;;;;;27.13;21.40;;;;;;;12.87;100.00;98858.04;1693657;83;21783;-82
2023/04/13 12:15:04;;;;;;;;;;;;;;;12.73;100.00;98857.86;1735953;81;21192;-83
2023/04/13 12:18:12;;;;;;;28.38;20.00;;;;;;;12.86;100.00;98855.00;1734769;82;20219;-82
2023/04/13 12:21:22;;;;;;;25.90;20.80;;;;;;;13.11;100.00;98859.59;1735343;82;21173;-82
2023/04/13 12:24:41;;;;;;;25.32;19.82;;;;;;;13.04;100.00;98855.56;1714627;82;21182;-82
2023/04/13 12:27:48;;;;;;;29.00;21.95;;;;;;;12.98;100.00;98854.53;1715514;83;21169;-82
2023/04/13 12:30:47;;;;;;;23.10;18.15;;;;;;;13.03;100.00;98859.34;1707162;82;21834;-82
2023/04/13 12:33:46;;;;;;;26.02;19.05;;;;;;;13.11;100.00;98850.82;1740139;80;21176;-82
2023/04/13 12:36:52;;;;;;;25.55;19.90;;;;;;;13.18;100.00;98848.02;1741528;80;21172;-82
2023/04/13 12:39:58;;;;;;;25.45;17.48;;;;;;;13.26;100.00;98840.86;1735119;81;21256;-82
2023/04/13 12:43:05;;;;;;;18.32;14.65;;;;;;;13.22;100.00;98845.13;1784023;79;21188;-82
2023/04/13 12:46:11;;;;;;;18.20;14.10;;;;;;;13.25;100.00;98844.14;1778000;79;21199;-83
2023/04/13 12:49:17;;;;;;;20.20;16.20;;;;;;;13.43;100.00;98843.84;1774400;79;21145;-83
2023/04/13 12:52:27;;;;;;;18.20;14.83;;;;;;;13.39;100.00;98843.45;1775665;79;21216;-83
2023/04/13 12:55:34;;;;;;;18.77;13.77;;;;;;;13.40;100.00;98834.13;1774545;79;21315;-83
2023/04/13 12:58:41;;;;;;;21.25;14.35;;;;;;;13.56;100.00;98834.06;1739443;82;21196;-82
2023/04/13 13:01:46;;;;;;;16.77;14.98;;;;;;;13.64;100.00;98835.63;1739274;82;21168;-82
2023/04/13 13:04:57;;;;;;;15.50;13.13;;;;;;;13.68;100.00;98832.72;1738352;82;21191;-82
2023/04/13 13:08:04;;;;;;;18.75;15.10;;;;;;;13.74;100.00;98831.81;1739442;82;21758;-83
2023/04/13 13:11:09;;;;;;;15.93;13.88;;;;;;;13.80;100.00;98829.50;1753477;80;21776;-83
2023/04/13 13:14:15;;;;;;;20.45;15.05;;;;;;;13.84;100.00;98836.22;1775672;80;21230;-82
2023/04/13 13:17:20;;;;;;;21.90;14.10;;;;;;;13.91;100.00;98832.81;1775984;80;21807;-82
2023/04/13 13:20:25;;;;;;;21.23;15.83;;;;;;;14.01;100.00;98828.96;1776298;80;21245;-82
2023/04/13 13:23:32;;;;;;;26.23;14.20;;;;;;;13.97;100.00;98839.28;1774624;80;21186;-82
2023/04/13 13:26:38;;;;;;;21.33;16.12;;;;;;;14.05;100.00;98841.17;1774171;80;21771;-82
2023/04/13 13:29:46;;;;;;;19.62;14.98;;;;;;;14.12;100.00;98827.34;1775224;80;21149;-82
2023/04/13 13:32:53;;;;;;;17.25;13.58;;;;;;;14.25;100.00;98831.77;1775926;80;21194;-82
2023/04/13 13:36:00;;;;;;;16.85;12.07;;;;;;;14.27;100.00;98835.14;1774420;80;21225;-82
2023/04/13 13:39:06;;;;;;;17.05;12.65;;;;;;;14.23;100.00;98838.89;1775713;80;21844;-82
2023/04/13 13:42:07;;;;;;;16.52;13.13;;;;;;;14.19;100.00;98843.72;1776106;80;21198;-82
2023/04/13 13:45:14;;;;;;;19.42;11.35;;;;;;;14.22;100.00;98836.39;1775735;80;21198;-82
2023/04/13 13:48:20;;;;;;;14.00;10.03;;;;;;;14.14;100.00;98838.09;1774784;80;21214;-82
2023/04/13 13:51:29;;;;;;;18.57;11.20;;;;;;;14.04;100.00;98835.37;1776390;80;21202;-82
2023/04/13 13:54:36;;;;;;;16.35;10.75;;;;;;;14.05;100.00;98842.55;1775848;80;21762;-82
2023/04/13 13:57:41;;;;;;;14.07;11.78;;;;;;;14.02;100.00;98848.53;1775877;80;21154;-82
2023/04/13 14:00:49;;;;;;;16.20;11.20;;;;;;;14.01;100.00;98848.74;1774487;80;22470;-82
2023/04/13 14:03:56;;;;;;;18.30;12.37;;;;;;;14.01;100.00;98855.08;1776186;80;21190;-82
2023/04/13 14:07:02;;;;;;;12.82;10.90;;;;;;;13.95;100.00;98851.89;1776035;80;21174;-82
2023/04/13 14:10:07;;;;;;;17.85;11.85;;;;;;;14.03;100.00;98854.86;1775703;80;21222;-82
2023/04/13 14:13:13;;;;;;;15.63;11.65;;;;;;;14.02;100.00;98858.16;1775878;80;21237;-82
2023/04/13 14:16:19;;;;;;;18.15;11.43;;;;;;;14.00;100.00;98849.82;1775792;80;21218;-82
2023/04/13 14:19:26;;;;;;;20.08;13.53;;;;;;;14.02;100.00;98854.53;1775569;80;21777;-82
2023/04/13 14:22:30;;;;;;;17.37;13.28;;;;;;;14.06;100.00;98847.50;1776586;80;21233;-82
2023/04/13 14:25:36;;;;;;;18.32;12.45;;;;;;;14.13;100.00;98844.67;1776632;80;21229;-82
2023/04/13 14:28:42;;;;;;;15.23;11.75;;;;;;;14.16;99.98;98838.17;1776863;80;21202;-82
2023/04/13 14:31:48;;;;;;;17.17;11.50;;;;;;;14.02;100.00;98851.28;1775084;80;21237;-83
2023/04/13 14:34:54;;;;;;;14.03;11.05;;;;;;;14.05;100.00;98847.20;1776060;80;21935;-82
2023/04/13 14:38:01;;;;;;;16.07;11.18;;;;;;;14.05;99.68;98837.05;1777047;80;21202;-82